sensor_id;sensor_type;location;lat;lon;timestamp;P1;durP1;ratioP1;P2;durP2;ratioP2
2712;SDS011;1366;47.988;7.856;2023-03-01T05:02:27;15.70;;;13.63;;
2712;SDS011;1366;47.988;7.856;2023-03-01T05:04:54;17.63;;;14.40;;
2712;SDS011;1366;47.988;7.856;2023-03-01T05:07:22;18.70;;;13.90;;
2712;SDS011;1366;47.988;7.856;2023-03-01T05:09:49;17.13;;;13.70;;
2712;SDS011;1366;47.988;7.856;2023-03-01T05:12:16;18.93;;;14.90;;
2712;SDS011;1366;47.988;7.856;2023-03-01T05:14:42;19.03;;;14.40;;
2712;SDS011;1366;47.988;7.856;2023-03-01T05:17:08;16.57;;;14.53;;
2712;SDS011;1366;47.988;7.856;2023-03-01T05:19:34;16.23;;;13.97;;
2712;SDS011;1366;47.988;7.856;2023-03-01T05:22:00;18.10;;;15.07;;
2712;SDS011;1366;47.988;7.856;2023-03-01T05:24:26;19.03;;;14.90;;
2712;SDS011;1366;47.988;7.856;2023-03-01T05:26:53;17.17;;;14.80;;
2712;SDS011;1366;47.988;7.856;2023-03-01T05:29:20;18.17;;;14.43;;
2712;SDS011;1366;47.988;7.856;2023-03-01T05:31:53;19.80;;;14.90;;
2712;SDS011;1366;47.988;7.856;2023-03-01T05:34:23;19.43;;;15.07;;
2712;SDS011;1366;47.988;7.856;2023-03-01T05:36:50;16.77;;;13.97;;
2712;SDS011;1366;47.988;7.856;2023-03-01T05:39:18;20.03;;;15.03;;
2712;SDS011;1366;47.988;7.856;2023-03-01T05:41:46;21.83;;;15.03;;
2712;SDS011;1366;47.988;7.856;2023-03-01T05:44:12;19.13;;;14.87;;
2712;SDS011;1366;47.988;7.856;2023-03-01T05:46:38;17.27;;;14.10;;
2712;SDS011;1366;47.988;7.856;2023-03-01T05:49:04;19.80;;;14.30;;
2712;SDS011;1366;47.988;7.856;2023-03-01T05:51:31;21.67;;;14.93;;
2712;SDS011;1366;47.988;7.856;2023-03-01T05:53:58;16.93;;;13.90;;
2712;SDS011;1366;47.988;7.856;2023-03-01T05:56:25;18.63;;;15.07;;
2712;SDS011;1366;47.988;7.856;2023-03-01T05:58:51;17.67;;;13.97;;
2712;SDS011;1366;47.988;7.856;2023-03-01T06:01:17;22.10;;;15.17;;
2712;SDS011;1366;47.988;7.856;2023-03-01T06:03:43;17.60;;;15.07;;
2712;SDS011;1366;47.988;7.856;2023-03-01T06:06:09;18.07;;;13.90;;
2712;SDS011;1366;47.988;7.856;2023-03-01T06:08:36;21.60;;;14.30;;
2712;SDS011;1366;47.988;7.856;2023-03-01T06:11:02;16.53;;;14.70;;
2712;SDS011;1366;47.988;7.856;2023-03-01T06:13:28;20.53;;;13.97;;
2712;SDS011;1366;47.988;7.856;2023-03-01T06:15:54;18.47;;;14.40;;
2712;SDS011;1366;47.988;7.856;2023-03-01T06:18:20;23.27;;;15.40;;
2712;SDS011;1366;47.988;7.856;2023-03-01T06:20:52;20.50;;;13.97;;
2712;SDS011;1366;47.988;7.856;2023-03-01T06:23:18;15.87;;;13.70;;
2712;SDS011;1366;47.988;7.856;2023-03-01T06:25:44;17.63;;;14.67;;
2712;SDS011;1366;47.988;7.856;2023-03-01T06:28:10;19.73;;;14.77;;
2712;SDS011;1366;47.988;7.856;2023-03-01T06:30:36;17.40;;;14.43;;
2712;SDS011;1366;47.988;7.856;2023-03-01T06:33:02;18.90;;;15.80;;
2712;SDS011;1366;47.988;7.856;2023-03-01T06:35:29;20.00;;;14.83;;
2712;SDS011;1366;47.988;7.856;2023-03-01T06:37:56;19.60;;;14.80;;
2712;SDS011;1366;47.988;7.856;2023-03-01T06:40:22;17.90;;;15.30;;
2712;SDS011;1366;47.988;7.856;2023-03-01T06:42:49;18.63;;;15.20;;
2712;SDS011;1366;47.988;7.856;2023-03-01T06:45:15;18.00;;;15.60;;
2712;SDS011;1366;47.988;7.856;2023-03-01T06:47:42;21.80;;;15.17;;
2712;SDS011;1366;47.988;7.856;2023-03-01T06:50:08;20.50;;;15.50;;
2712;SDS011;1366;47.988;7.856;2023-03-01T06:52:34;20.67;;;14.40;;
2712;SDS011;1366;47.988;7.856;2023-03-01T06:55:00;20.70;;;16.00;;
2712;SDS011;1366;47.988;7.856;2023-03-01T06:57:27;20.93;;;15.10;;
2712;SDS011;1366;47.988;7.856;2023-03-01T06:59:53;20.90;;;15.87;;
2712;SDS011;1366;47.988;7.856;2023-03-01T07:02:19;20.63;;;15.77;;
2712;SDS011;1366;47.988;7.856;2023-03-01T07:04:49;20.33;;;14.90;;
2712;SDS011;1366;47.988;7.856;2023-03-01T07:07:15;20.93;;;16.00;;
2712;SDS011;1366;47.988;7.856;2023-03-01T07:09:43;21.20;;;14.80;;
2712;SDS011;1366;47.988;7.856;2023-03-01T07:12:09;18.97;;;14.70;;
2712;SDS011;1366;47.988;7.856;2023-03-01T07:14:35;21.83;;;15.67;;
2712;SDS011;1366;47.988;7.856;2023-03-01T07:17:01;21.73;;;15.40;;
2712;SDS011;1366;47.988;7.856;2023-03-01T07:19:27;20.00;;;15.80;;
2712;SDS011;1366;47.988;7.856;2023-03-01T07:21:53;18.43;;;14.37;;
2712;SDS011;1366;47.988;7.856;2023-03-01T07:24:20;20.23;;;15.10;;
2712;SDS011;1366;47.988;7.856;2023-03-01T07:26:50;22.90;;;15.90;;
2712;SDS011;1366;47.988;7.856;2023-03-01T07:29:16;20.97;;;14.83;;
2712;SDS011;1366;47.988;7.856;2023-03-01T07:31:42;20.33;;;14.70;;
2712;SDS011;1366;47.988;7.856;2023-03-01T07:34:09;19.90;;;14.80;;
2712;SDS011;1366;47.988;7.856;2023-03-01T07:36:35;17.63;;;14.60;;
2712;SDS011;1366;47.988;7.856;2023-03-01T07:39:02;19.33;;;14.30;;
2712;SDS011;1366;47.988;7.856;2023-03-01T07:41:28;18.83;;;15.27;;
2712;SDS011;1366;47.988;7.856;2023-03-01T07:43:55;20.57;;;15.43;;
2712;SDS011;1366;47.988;7.856;2023-03-01T07:46:21;19.30;;;14.63;;
2712;SDS011;1366;47.988;7.856;2023-03-01T07:48:47;18.70;;;15.23;;
2712;SDS011;1366;47.988;7.856;2023-03-01T07:51:13;21.73;;;15.20;;
2712;SDS011;1366;47.988;7.856;2023-03-01T07:53:39;20.93;;;15.17;;
2712;SDS011;1366;47.988;7.856;2023-03-01T07:56:07;19.00;;;14.90;;
2712;SDS011;1366;47.988;7.856;2023-03-01T07:58:34;21.97;;;15.57;;
2712;SDS011;1366;47.988;7.856;2023-03-01T08:01:02;20.13;;;15.03;;
2712;SDS011;1366;47.988;7.856;2023-03-01T08:03:28;21.47;;;15.10;;
2712;SDS011;1366;47.988;7.856;2023-03-01T08:05:54;18.33;;;15.37;;
2712;SDS011;1366;47.988;7.856;2023-03-01T08:08:21;21.03;;;14.93;;
2712;SDS011;1366;47.988;7.856;2023-03-01T08:10:47;20.43;;;15.70;;
2712;SDS011;1366;47.988;7.856;2023-03-01T08:13:13;22.37;;;15.27;;
2712;SDS011;1366;47.988;7.856;2023-03-01T08:15:39;23.80;;;16.30;;
2712;SDS011;1366;47.988;7.856;2023-03-01T08:18:05;19.33;;;15.80;;
2712;SDS011;1366;47.988;7.856;2023-03-01T08:20:31;19.97;;;16.03;;
2712;SDS011;1366;47.988;7.856;2023-03-01T08:22:57;23.57;;;16.00;;
2712;SDS011;1366;47.988;7.856;2023-03-01T08:25:23;22.30;;;16.33;;
2712;SDS011;1366;47.988;7.856;2023-03-01T08:27:49;23.27;;;16.17;;
2712;SDS011;1366;47.988;7.856;2023-03-01T08:30:15;23.13;;;15.93;;
2712;SDS011;1366;47.988;7.856;2023-03-01T08:32:42;18.00;;;15.30;;
2712;SDS011;1366;47.988;7.856;2023-03-01T08:35:08;21.20;;;16.00;;
2712;SDS011;1366;47.988;7.856;2023-03-01T08:37:34;19.47;;;14.10;;
2712;SDS011;1366;47.988;7.856;2023-03-01T08:40:00;23.43;;;15.30;;
2712;SDS011;1366;47.988;7.856;2023-03-01T08:42:26;21.63;;;16.17;;
2712;SDS011;1366;47.988;7.856;2023-03-01T08:44:52;21.60;;;16.50;;
2712;SDS011;1366;47.988;7.856;2023-03-01T08:47:18;20.30;;;16.53;;
2712;SDS011;1366;47.988;7.856;2023-03-01T08:49:44;21.13;;;15.83;;
2712;SDS011;1366;47.988;7.856;2023-03-01T08:52:10;18.10;;;14.90;;
2712;SDS011;1366;47.988;7.856;2023-03-01T08:54:36;22.13;;;16.60;;
2712;SDS011;1366;47.988;7.856;2023-03-01T08:57:02;23.53;;;17.27;;
2712;SDS011;1366;47.988;7.856;2023-03-01T08:59:29;23.77;;;16.10;;
2712;SDS011;1366;47.988;7.856;2023-03-01T09:01:55;19.63;;;15.10;;
2712;SDS011;1366;47.988;7.856;2023-03-01T09:04:21;22.00;;;15.67;;
2712;SDS011;1366;47.988;7.856;2023-03-01T09:06:47;23.20;;;16.93;;
2712;SDS011;1366;47.988;7.856;2023-03-01T09:09:14;22.20;;;15.90;;
2712;SDS011;1366;47.988;7.856;2023-03-01T09:11:41;28.33;;;17.23;;
2712;SDS011;1366;47.988;7.856;2023-03-01T09:14:08;19.67;;;14.70;;
2712;SDS011;1366;47.988;7.856;2023-03-01T09:16:34;20.90;;;16.87;;
2712;SDS011;1366;47.988;7.856;2023-03-01T09:19:01;23.20;;;17.10;;
2712;SDS011;1366;47.988;7.856;2023-03-01T09:21:27;21.47;;;15.37;;
2712;SDS011;1366;47.988;7.856;2023-03-01T09:23:55;22.53;;;15.63;;
2712;SDS011;1366;47.988;7.856;2023-03-01T09:26:22;25.37;;;15.37;;
2712;SDS011;1366;47.988;7.856;2023-03-01T09:28:48;23.27;;;15.87;;
2712;SDS011;1366;47.988;7.856;2023-03-01T09:31:15;22.50;;;16.40;;
2712;SDS011;1366;47.988;7.856;2023-03-01T09:33:42;22.23;;;15.90;;
2712;SDS011;1366;47.988;7.856;2023-03-01T09:36:11;24.00;;;16.97;;
2712;SDS011;1366;47.988;7.856;2023-03-01T09:38:37;21.70;;;16.37;;
2712;SDS011;1366;47.988;7.856;2023-03-01T09:41:08;22.97;;;17.00;;
2712;SDS011;1366;47.988;7.856;2023-03-01T09:43:46;22.90;;;16.33;;
2712;SDS011;1366;47.988;7.856;2023-03-01T09:46:13;21.97;;;15.70;;
2712;SDS011;1366;47.988;7.856;2023-03-01T09:48:43;20.23;;;16.10;;
2712;SDS011;1366;47.988;7.856;2023-03-01T09:51:12;22.23;;;16.63;;
2712;SDS011;1366;47.988;7.856;2023-03-01T09:53:40;23.03;;;16.47;;
2712;SDS011;1366;47.988;7.856;2023-03-01T09:58:41;23.20;;;17.10;;
2712;SDS011;1366;47.988;7.856;2023-03-01T10:07:00;23.03;;;17.23;;
2712;SDS011;1366;47.988;7.856;2023-03-01T10:09:29;23.00;;;17.10;;
2712;SDS011;1366;47.988;7.856;2023-03-01T10:11:57;23.60;;;17.27;;
2712;SDS011;1366;47.988;7.856;2023-03-01T10:14:48;21.43;;;16.13;;
2712;SDS011;1366;47.988;7.856;2023-03-01T10:19:53;30.20;;;17.53;;
2712;SDS011;1366;47.988;7.856;2023-03-01T10:22:24;22.60;;;17.10;;
2712;SDS011;1366;47.988;7.856;2023-03-01T10:24:53;24.73;;;17.57;;
2712;SDS011;1366;47.988;7.856;2023-03-01T10:27:22;21.53;;;15.90;;
2712;SDS011;1366;47.988;7.856;2023-03-01T10:29:51;22.80;;;17.10;;
2712;SDS011;1366;47.988;7.856;2023-03-01T10:32:22;21.37;;;17.80;;
2712;SDS011;1366;47.988;7.856;2023-03-01T10:34:48;24.80;;;17.17;;
2712;SDS011;1366;47.988;7.856;2023-03-01T10:37:15;24.23;;;17.67;;
2712;SDS011;1366;47.988;7.856;2023-03-01T10:40:01;20.57;;;16.37;;
2712;SDS011;1366;47.988;7.856;2023-03-01T10:42:32;26.57;;;18.47;;
2712;SDS011;1366;47.988;7.856;2023-03-01T10:45:14;24.87;;;17.27;;
2712;SDS011;1366;47.988;7.856;2023-03-01T10:47:40;25.33;;;18.30;;
2712;SDS011;1366;47.988;7.856;2023-03-01T10:50:20;22.03;;;17.57;;
2712;SDS011;1366;47.988;7.856;2023-03-01T10:52:57;20.83;;;17.00;;
2712;SDS011;1366;47.988;7.856;2023-03-01T10:55:27;21.93;;;17.90;;
2712;SDS011;1366;47.988;7.856;2023-03-01T11:00:56;22.50;;;16.27;;
2712;SDS011;1366;47.988;7.856;2023-03-01T11:03:23;22.70;;;18.07;;
2712;SDS011;1366;47.988;7.856;2023-03-01T11:05:51;22.30;;;16.33;;
2712;SDS011;1366;47.988;7.856;2023-03-01T11:08:34;24.70;;;18.50;;
2712;SDS011;1366;47.988;7.856;2023-03-01T11:11:13;25.87;;;17.83;;
2712;SDS011;1366;47.988;7.856;2023-03-01T11:13:49;23.17;;;18.53;;
2712;SDS011;1366;47.988;7.856;2023-03-01T11:16:16;23.70;;;17.20;;
2712;SDS011;1366;47.988;7.856;2023-03-01T11:18:55;22.17;;;17.00;;
2712;SDS011;1366;47.988;7.856;2023-03-01T11:21:21;23.20;;;18.20;;
2712;SDS011;1366;47.988;7.856;2023-03-01T11:23:48;23.13;;;17.63;;
2712;SDS011;1366;47.988;7.856;2023-03-01T11:26:14;20.97;;;18.20;;
2712;SDS011;1366;47.988;7.856;2023-03-01T11:28:41;22.80;;;17.70;;
2712;SDS011;1366;47.988;7.856;2023-03-01T11:31:08;23.87;;;16.57;;
2712;SDS011;1366;47.988;7.856;2023-03-01T11:33:43;22.50;;;17.30;;
2712;SDS011;1366;47.988;7.856;2023-03-01T11:36:16;24.27;;;17.90;;
2712;SDS011;1366;47.988;7.856;2023-03-01T11:38:43;24.33;;;19.70;;
2712;SDS011;1366;47.988;7.856;2023-03-01T11:41:14;26.70;;;18.70;;
2712;SDS011;1366;47.988;7.856;2023-03-01T11:43:48;29.17;;;18.43;;
2712;SDS011;1366;47.988;7.856;2023-03-01T11:51:30;24.30;;;18.63;;
2712;SDS011;1366;47.988;7.856;2023-03-01T11:54:06;22.93;;;17.20;;
2712;SDS011;1366;47.988;7.856;2023-03-01T11:56:38;22.30;;;17.47;;
2712;SDS011;1366;47.988;7.856;2023-03-01T12:06:47;23.60;;;17.87;;
2712;SDS011;1366;47.988;7.856;2023-03-01T12:24:42;39.73;;;29.63;;
2712;SDS011;1366;47.988;7.856;2023-03-01T12:27:28;20.33;;;16.97;;
2712;SDS011;1366;47.988;7.856;2023-03-01T12:30:15;24.33;;;17.33;;
2712;SDS011;1366;47.988;7.856;2023-03-01T12:45:45;18.30;;;14.37;;
2712;SDS011;1366;47.988;7.856;2023-03-01T12:48:23;18.57;;;12.67;;
2712;SDS011;1366;47.988;7.856;2023-03-01T12:50:54;17.13;;;12.73;;
2712;SDS011;1366;47.988;7.856;2023-03-01T12:53:39;15.97;;;13.60;;
2712;SDS011;1366;47.988;7.856;2023-03-01T12:56:06;14.80;;;12.63;;
2712;SDS011;1366;47.988;7.856;2023-03-01T12:58:36;15.87;;;13.40;;
2712;SDS011;1366;47.988;7.856;2023-03-01T13:11:20;17.50;;;13.40;;
2712;SDS011;1366;47.988;7.856;2023-03-01T13:13:47;16.50;;;14.00;;
2712;SDS011;1366;47.988;7.856;2023-03-01T13:16:20;18.33;;;13.77;;
2712;SDS011;1366;47.988;7.856;2023-03-01T13:18:47;15.30;;;12.70;;
2712;SDS011;1366;47.988;7.856;2023-03-01T13:21:13;15.77;;;14.07;;
2712;SDS011;1366;47.988;7.856;2023-03-01T13:23:54;16.00;;;13.07;;
2712;SDS011;1366;47.988;7.856;2023-03-01T13:26:20;15.17;;;12.80;;
2712;SDS011;1366;47.988;7.856;2023-03-01T13:28:47;15.40;;;12.60;;
2712;SDS011;1366;47.988;7.856;2023-03-01T13:33:46;15.67;;;13.60;;
2712;SDS011;1366;47.988;7.856;2023-03-01T13:38:55;16.20;;;13.00;;
2712;SDS011;1366;47.988;7.856;2023-03-01T13:46:38;17.23;;;14.50;;
2712;SDS011;1366;47.988;7.856;2023-03-01T13:49:04;16.57;;;13.97;;
2712;SDS011;1366;47.988;7.856;2023-03-01T13:51:30;14.80;;;13.20;;
2712;SDS011;1366;47.988;7.856;2023-03-01T13:53:56;17.77;;;14.47;;
2712;SDS011;1366;47.988;7.856;2023-03-01T13:56:24;16.53;;;14.23;;
2712;SDS011;1366;47.988;7.856;2023-03-01T13:58:52;18.70;;;16.20;;
2712;SDS011;1366;47.988;7.856;2023-03-01T14:03:48;17.77;;;14.03;;
2712;SDS011;1366;47.988;7.856;2023-03-01T14:06:15;15.63;;;13.90;;
2712;SDS011;1366;47.988;7.856;2023-03-01T14:08:43;19.10;;;15.67;;
2712;SDS011;1366;47.988;7.856;2023-03-01T14:18:47;18.20;;;14.10;;
2712;SDS011;1366;47.988;7.856;2023-03-01T14:21:17;16.90;;;13.50;;
2712;SDS011;1366;47.988;7.856;2023-03-01T14:23:43;17.63;;;13.33;;
2712;SDS011;1366;47.988;7.856;2023-03-01T14:26:11;17.33;;;13.70;;
2712;SDS011;1366;47.988;7.856;2023-03-01T14:28:37;14.60;;;12.70;;
2712;SDS011;1366;47.988;7.856;2023-03-01T14:31:28;14.97;;;13.30;;
2712;SDS011;1366;47.988;7.856;2023-03-01T14:33:59;19.17;;;15.00;;
2712;SDS011;1366;47.988;7.856;2023-03-01T14:36:26;16.50;;;13.50;;
2712;SDS011;1366;47.988;7.856;2023-03-01T14:38:52;19.63;;;14.10;;
2712;SDS011;1366;47.988;7.856;2023-03-01T14:41:20;16.30;;;13.07;;
2712;SDS011;1366;47.988;7.856;2023-03-01T14:43:47;15.80;;;14.10;;
2712;SDS011;1366;47.988;7.856;2023-03-01T14:46:19;18.63;;;13.27;;
2712;SDS011;1366;47.988;7.856;2023-03-01T14:48:48;16.63;;;13.33;;
2712;SDS011;1366;47.988;7.856;2023-03-01T14:51:14;16.83;;;14.40;;
2712;SDS011;1366;47.988;7.856;2023-03-01T14:53:41;19.50;;;15.33;;
2712;SDS011;1366;47.988;7.856;2023-03-01T14:56:16;17.07;;;14.47;;
2712;SDS011;1366;47.988;7.856;2023-03-01T14:58:43;17.80;;;15.13;;
2712;SDS011;1366;47.988;7.856;2023-03-01T15:01:10;15.63;;;13.47;;
2712;SDS011;1366;47.988;7.856;2023-03-01T15:03:46;18.23;;;15.33;;
2712;SDS011;1366;47.988;7.856;2023-03-01T15:06:17;17.77;;;15.50;;
2712;SDS011;1366;47.988;7.856;2023-03-01T15:08:47;17.00;;;14.67;;
2712;SDS011;1366;47.988;7.856;2023-03-01T15:13:43;17.60;;;14.10;;
2712;SDS011;1366;47.988;7.856;2023-03-01T15:16:15;17.40;;;14.37;;
2712;SDS011;1366;47.988;7.856;2023-03-01T15:18:46;16.87;;;14.63;;
2712;SDS011;1366;47.988;7.856;2023-03-01T15:21:23;16.20;;;14.60;;
2712;SDS011;1366;47.988;7.856;2023-03-01T15:23:50;14.97;;;13.50;;
2712;SDS011;1366;47.988;7.856;2023-03-01T15:26:21;19.70;;;15.40;;
2712;SDS011;1366;47.988;7.856;2023-03-01T15:28:52;15.67;;;14.00;;
2712;SDS011;1366;47.988;7.856;2023-03-01T15:31:22;18.70;;;15.77;;
2712;SDS011;1366;47.988;7.856;2023-03-01T15:33:49;20.47;;;17.10;;
2712;SDS011;1366;47.988;7.856;2023-03-01T15:39:00;20.07;;;16.90;;
2712;SDS011;1366;47.988;7.856;2023-03-01T15:41:28;19.70;;;17.50;;
2712;SDS011;1366;47.988;7.856;2023-03-01T15:43:56;19.87;;;17.77;;
2712;SDS011;1366;47.988;7.856;2023-03-01T15:46:44;24.23;;;20.70;;
2712;SDS011;1366;47.988;7.856;2023-03-01T15:51:53;27.40;;;21.30;;
2712;SDS011;1366;47.988;7.856;2023-03-01T15:54:21;25.90;;;21.00;;
2712;SDS011;1366;47.988;7.856;2023-03-01T15:56:48;24.43;;;20.30;;
2712;SDS011;1366;47.988;7.856;2023-03-01T15:59:14;22.40;;;19.50;;
2712;SDS011;1366;47.988;7.856;2023-03-01T16:01:40;27.70;;;19.03;;
2712;SDS011;1366;47.988;7.856;2023-03-01T16:04:08;24.70;;;19.77;;
2712;SDS011;1366;47.988;7.856;2023-03-01T16:06:37;25.57;;;20.50;;
2712;SDS011;1366;47.988;7.856;2023-03-01T16:09:04;27.00;;;19.80;;
2712;SDS011;1366;47.988;7.856;2023-03-01T16:11:30;26.73;;;20.43;;
2712;SDS011;1366;47.988;7.856;2023-03-01T16:13:57;23.87;;;18.33;;
2712;SDS011;1366;47.988;7.856;2023-03-01T16:16:23;24.97;;;19.43;;
2712;SDS011;1366;47.988;7.856;2023-03-01T16:18:49;23.77;;;19.80;;
2712;SDS011;1366;47.988;7.856;2023-03-01T16:21:18;30.20;;;19.50;;
2712;SDS011;1366;47.988;7.856;2023-03-01T16:23:45;24.80;;;19.93;;
2712;SDS011;1366;47.988;7.856;2023-03-01T16:26:11;22.00;;;18.77;;
2712;SDS011;1366;47.988;7.856;2023-03-01T16:28:37;24.57;;;19.33;;
2712;SDS011;1366;47.988;7.856;2023-03-01T16:31:03;26.20;;;19.27;;
2712;SDS011;1366;47.988;7.856;2023-03-01T16:33:30;23.77;;;18.57;;
2712;SDS011;1366;47.988;7.856;2023-03-01T16:35:57;27.53;;;19.30;;
2712;SDS011;1366;47.988;7.856;2023-03-01T16:38:24;29.53;;;19.57;;
2712;SDS011;1366;47.988;7.856;2023-03-01T16:40:51;25.73;;;19.30;;
2712;SDS011;1366;47.988;7.856;2023-03-01T16:43:17;26.17;;;19.63;;
2712;SDS011;1366;47.988;7.856;2023-03-01T16:45:43;23.27;;;18.50;;
2712;SDS011;1366;47.988;7.856;2023-03-01T16:48:10;25.77;;;21.57;;
2712;SDS011;1366;47.988;7.856;2023-03-01T16:50:36;24.17;;;19.00;;
2712;SDS011;1366;47.988;7.856;2023-03-01T16:53:02;27.10;;;21.00;;
2712;SDS011;1366;47.988;7.856;2023-03-01T16:55:28;24.87;;;18.97;;
2712;SDS011;1366;47.988;7.856;2023-03-01T16:57:54;24.33;;;18.73;;
2712;SDS011;1366;47.988;7.856;2023-03-01T17:00:20;25.20;;;19.93;;
2712;SDS011;1366;47.988;7.856;2023-03-01T17:02:47;24.33;;;18.83;;
2712;SDS011;1366;47.988;7.856;2023-03-01T17:05:13;26.23;;;19.10;;
2712;SDS011;1366;47.988;7.856;2023-03-01T17:07:39;27.20;;;19.67;;
2712;SDS011;1366;47.988;7.856;2023-03-01T17:10:07;23.83;;;20.13;;
2712;SDS011;1366;47.988;7.856;2023-03-01T17:12:34;25.77;;;20.07;;
2712;SDS011;1366;47.988;7.856;2023-03-01T17:15:00;29.63;;;21.93;;
2712;SDS011;1366;47.988;7.856;2023-03-01T17:17:26;27.33;;;21.77;;
2712;SDS011;1366;47.988;7.856;2023-03-01T17:19:52;32.07;;;22.60;;
2712;SDS011;1366;47.988;7.856;2023-03-01T17:22:18;27.73;;;21.50;;
2712;SDS011;1366;47.988;7.856;2023-03-01T17:24:45;28.50;;;21.80;;
2712;SDS011;1366;47.988;7.856;2023-03-01T17:27:11;26.90;;;17.73;;
2712;SDS011;1366;47.988;7.856;2023-03-01T17:29:38;27.50;;;20.70;;
2712;SDS011;1366;47.988;7.856;2023-03-01T17:32:05;26.43;;;20.93;;
2712;SDS011;1366;47.988;7.856;2023-03-01T17:34:31;27.13;;;20.20;;
2712;SDS011;1366;47.988;7.856;2023-03-01T17:36:57;30.60;;;21.80;;
2712;SDS011;1366;47.988;7.856;2023-03-01T17:39:24;30.57;;;21.30;;
2712;SDS011;1366;47.988;7.856;2023-03-01T17:41:52;26.60;;;20.67;;
2712;SDS011;1366;47.988;7.856;2023-03-01T17:44:19;26.90;;;20.77;;
2712;SDS011;1366;47.988;7.856;2023-03-01T17:46:45;26.40;;;20.40;;
2712;SDS011;1366;47.988;7.856;2023-03-01T17:49:11;28.70;;;20.80;;
2712;SDS011;1366;47.988;7.856;2023-03-01T17:51:37;24.37;;;19.90;;
2712;SDS011;1366;47.988;7.856;2023-03-01T17:54:03;28.67;;;20.93;;
2712;SDS011;1366;47.988;7.856;2023-03-01T17:56:29;27.53;;;20.50;;
2712;SDS011;1366;47.988;7.856;2023-03-01T17:58:59;27.50;;;20.20;;
2712;SDS011;1366;47.988;7.856;2023-03-01T18:01:25;28.20;;;19.67;;
2712;SDS011;1366;47.988;7.856;2023-03-01T18:03:52;25.87;;;18.97;;
2712;SDS011;1366;47.988;7.856;2023-03-01T18:06:20;23.97;;;19.20;;
2712;SDS011;1366;47.988;7.856;2023-03-01T18:08:47;22.70;;;18.57;;
2712;SDS011;1366;47.988;7.856;2023-03-01T18:11:14;22.90;;;18.53;;
2712;SDS011;1366;47.988;7.856;2023-03-01T18:13:40;25.40;;;18.97;;
2712;SDS011;1366;47.988;7.856;2023-03-01T18:16:07;23.87;;;18.97;;
2712;SDS011;1366;47.988;7.856;2023-03-01T18:18:34;24.00;;;17.93;;
2712;SDS011;1366;47.988;7.856;2023-03-01T18:21:00;28.30;;;19.83;;
2712;SDS011;1366;47.988;7.856;2023-03-01T18:23:27;23.93;;;19.50;;
2712;SDS011;1366;47.988;7.856;2023-03-01T18:25:57;28.97;;;20.50;;
2712;SDS011;1366;47.988;7.856;2023-03-01T18:28:24;22.57;;;19.50;;
2712;SDS011;1366;47.988;7.856;2023-03-01T18:33:23;23.93;;;19.87;;
2712;SDS011;1366;47.988;7.856;2023-03-01T18:35:49;27.33;;;20.87;;
2712;SDS011;1366;47.988;7.856;2023-03-01T18:38:15;24.70;;;19.23;;
2712;SDS011;1366;47.988;7.856;2023-03-01T18:40:42;26.43;;;19.00;;
2712;SDS011;1366;47.988;7.856;2023-03-01T18:43:08;21.90;;;19.20;;
2712;SDS011;1366;47.988;7.856;2023-03-01T18:45:34;25.37;;;19.27;;
2712;SDS011;1366;47.988;7.856;2023-03-01T18:48:00;25.93;;;19.53;;
2712;SDS011;1366;47.988;7.856;2023-03-01T18:50:30;26.60;;;19.30;;
2712;SDS011;1366;47.988;7.856;2023-03-01T18:52:56;27.43;;;21.10;;
2712;SDS011;1366;47.988;7.856;2023-03-01T18:55:25;24.30;;;19.10;;
2712;SDS011;1366;47.988;7.856;2023-03-01T18:57:51;26.53;;;19.73;;
2712;SDS011;1366;47.988;7.856;2023-03-01T19:00:17;29.00;;;21.07;;
2712;SDS011;1366;47.988;7.856;2023-03-01T19:02:44;28.73;;;21.60;;
2712;SDS011;1366;47.988;7.856;2023-03-01T19:05:11;27.20;;;20.93;;
2712;SDS011;1366;47.988;7.856;2023-03-01T19:07:37;25.10;;;19.97;;
2712;SDS011;1366;47.988;7.856;2023-03-01T19:10:03;29.97;;;20.80;;
2712;SDS011;1366;47.988;7.856;2023-03-01T19:12:30;23.27;;;19.93;;
2712;SDS011;1366;47.988;7.856;2023-03-01T19:14:56;24.70;;;19.90;;
2712;SDS011;1366;47.988;7.856;2023-03-01T19:17:22;25.27;;;19.43;;
2712;SDS011;1366;47.988;7.856;2023-03-01T19:19:54;27.80;;;19.40;;
2712;SDS011;1366;47.988;7.856;2023-03-01T19:22:21;27.63;;;19.10;;
2712;SDS011;1366;47.988;7.856;2023-03-01T19:24:47;28.83;;;21.00;;
2712;SDS011;1366;47.988;7.856;2023-03-01T19:27:13;23.40;;;19.83;;
2712;SDS011;1366;47.988;7.856;2023-03-01T19:29:39;22.00;;;18.13;;
2712;SDS011;1366;47.988;7.856;2023-03-01T19:32:05;24.40;;;19.50;;
2712;SDS011;1366;47.988;7.856;2023-03-01T19:34:31;26.90;;;19.10;;
2712;SDS011;1366;47.988;7.856;2023-03-01T19:36:57;26.10;;;19.60;;
2712;SDS011;1366;47.988;7.856;2023-03-01T19:39:23;27.73;;;21.73;;
2712;SDS011;1366;47.988;7.856;2023-03-01T19:41:52;24.87;;;19.80;;
2712;SDS011;1366;47.988;7.856;2023-03-01T19:44:19;24.40;;;19.77;;
2712;SDS011;1366;47.988;7.856;2023-03-01T19:46:50;25.17;;;18.40;;
2712;SDS011;1366;47.988;7.856;2023-03-01T19:49:16;23.73;;;18.93;;
2712;SDS011;1366;47.988;7.856;2023-03-01T19:51:42;24.07;;;19.70;;
2712;SDS011;1366;47.988;7.856;2023-03-01T19:54:08;25.27;;;20.37;;
2712;SDS011;1366;47.988;7.856;2023-03-01T19:56:36;32.27;;;20.87;;
2712;SDS011;1366;47.988;7.856;2023-03-01T19:59:02;25.77;;;20.87;;
2712;SDS011;1366;47.988;7.856;2023-03-01T20:01:30;26.00;;;21.90;;
2712;SDS011;1366;47.988;7.856;2023-03-01T20:03:58;24.63;;;20.77;;
2712;SDS011;1366;47.988;7.856;2023-03-01T20:06:24;31.97;;;22.47;;
2712;SDS011;1366;47.988;7.856;2023-03-01T20:08:50;30.60;;;24.53;;
2712;SDS011;1366;47.988;7.856;2023-03-01T20:11:16;32.23;;;22.83;;
2712;SDS011;1366;47.988;7.856;2023-03-01T20:13:43;31.43;;;22.60;;
2712;SDS011;1366;47.988;7.856;2023-03-01T20:16:12;34.00;;;25.67;;
2712;SDS011;1366;47.988;7.856;2023-03-01T20:18:40;32.77;;;24.90;;
2712;SDS011;1366;47.988;7.856;2023-03-01T20:21:06;31.90;;;24.10;;
2712;SDS011;1366;47.988;7.856;2023-03-01T20:23:33;28.90;;;23.87;;
2712;SDS011;1366;47.988;7.856;2023-03-01T20:26:03;31.73;;;23.67;;
2712;SDS011;1366;47.988;7.856;2023-03-01T20:28:29;28.60;;;22.77;;
2712;SDS011;1366;47.988;7.856;2023-03-01T20:31:01;25.40;;;21.40;;
2712;SDS011;1366;47.988;7.856;2023-03-01T20:33:27;29.10;;;21.47;;
2712;SDS011;1366;47.988;7.856;2023-03-01T20:35:53;28.87;;;22.73;;
2712;SDS011;1366;47.988;7.856;2023-03-01T20:38:19;25.90;;;21.13;;
2712;SDS011;1366;47.988;7.856;2023-03-01T20:40:45;27.90;;;21.60;;
2712;SDS011;1366;47.988;7.856;2023-03-01T20:43:11;28.87;;;22.00;;
2712;SDS011;1366;47.988;7.856;2023-03-01T20:45:37;25.80;;;21.90;;
2712;SDS011;1366;47.988;7.856;2023-03-01T20:48:03;29.77;;;23.47;;
2712;SDS011;1366;47.988;7.856;2023-03-01T20:50:30;32.40;;;21.80;;
2712;SDS011;1366;47.988;7.856;2023-03-01T20:52:56;30.27;;;23.67;;
2712;SDS011;1366;47.988;7.856;2023-03-01T20:55:22;28.83;;;22.40;;
2712;SDS011;1366;47.988;7.856;2023-03-01T20:57:48;28.70;;;21.00;;
2712;SDS011;1366;47.988;7.856;2023-03-01T21:00:14;31.30;;;23.40;;
2712;SDS011;1366;47.988;7.856;2023-03-01T21:02:40;32.30;;;23.13;;
2712;SDS011;1366;47.988;7.856;2023-03-01T21:05:08;29.73;;;22.53;;
2712;SDS011;1366;47.988;7.856;2023-03-01T21:07:34;34.27;;;25.63;;
2712;SDS011;1366;47.988;7.856;2023-03-01T21:10:03;34.53;;;24.83;;
2712;SDS011;1366;47.988;7.856;2023-03-01T21:12:29;36.10;;;26.50;;
2712;SDS011;1366;47.988;7.856;2023-03-01T21:14:55;31.37;;;24.50;;
2712;SDS011;1366;47.988;7.856;2023-03-01T21:17:21;30.90;;;23.63;;
2712;SDS011;1366;47.988;7.856;2023-03-01T21:19:47;31.23;;;24.50;;
2712;SDS011;1366;47.988;7.856;2023-03-01T21:22:15;29.87;;;23.10;;
2712;SDS011;1366;47.988;7.856;2023-03-01T21:24:41;33.47;;;23.73;;
2712;SDS011;1366;47.988;7.856;2023-03-01T21:27:08;30.83;;;22.70;;
2712;SDS011;1366;47.988;7.856;2023-03-01T21:29:41;29.23;;;22.57;;